Patterson, CA (95363)

11:15 PM PDT on September 04, 2015 (GMT -0700)
Covanta Energy | | Change Station
CLOSE
Current Station
Personal Weather Station
Location: Crows Landing, CA
Elevation: 282 ft
Nearby Weather Stations

Elev 282 ft 37.39 °N, 121.14 °W | Updated 4 minutes ago

Clear
Clear
62.6 °F
Feels Like 62.6 °F
N
4.7
Wind Variable Wind from NE

Today
High -- | Low -- °F
--% Chance of Precip.
Yesterday
High -- | Low -- °F
Precip. -- in
6:37 AM 7:29 PM
Waning Gibbous, 52% visible
Pressure 29.85 in
Visibility 10.0 miles
Clouds Clear
Dew Point 44 °F
Humidity 50%
Rainfall 0.00 in
Snow Depth Not available.
UV 0 out of 12
Pollen 8.30 out of 12
Air Quality Not available.
Flu Activity Not available.
METAR KMOD 050553Z AUTO 02004KT 10SM CLR 18/06 A2985 RMK AO2 SLP106 T01780061 10289 20172 51019
Pressure 29.85 in
Visibility 10.0 miles
Clouds Clear
Dew Point 44 °F
Humidity 50%
Rainfall 0.00 in
Snow Depth Not available.
UV 0 out of 12
Pollen 8.30 out of 12
Air Quality Not available.
Flu Activity Not available.
METAR KMOD 050553Z AUTO 02004KT 10SM CLR 18/06 A2985 RMK AO2 SLP106 T01780061 10289 20172 51019

10-Day Weather Forecast

×

Almanac

Astronomy

Sep. 04, 2015 Rise Set
Actual Time
Civil Twilight
Nautical Twilight
Astronomical Twilight
Moon
Length of Visible Light
Length of Day
Tomorrow will be .
, % of the Moon is Illuminated

Today's Extremes

State Highs State Lows

Community

WunderPhotos

Upload Photos

1,852,431 photos uploaded!

WunderBlogs® & News

Nearby

Air Quality

  Air Quality AQ Index Pollutant
Not available.

Snow Depth

Station Depth Elevation

Earthquake Activity

City Distance Mag. Time & Date
Minimum magnitude displayed is 2.5.

Coastal Water Temperatures

Place Temperature

Stations

Nearby Weather Stations

Station Location Temp. Windchill Dew Point Humidity Wind Precip. Elev Updated Type